createdAt,value
2022-08-21T00:00:24.269Z,14.18
2022-08-21T00:02:55.184Z,14.20
2022-08-21T00:05:23.097Z,14.09
2022-08-21T00:07:49.942Z,13.79
2022-08-21T00:10:25.737Z,13.61
2022-08-21T00:12:52.528Z,13.38
2022-08-21T00:15:23.666Z,13.66
2022-08-21T00:17:50.258Z,13.51
2022-08-21T00:20:18.142Z,13.79
2022-08-21T00:22:46.931Z,13.87
2022-08-21T00:25:15.181Z,14.01
2022-08-21T00:27:47.420Z,14.06
2022-08-21T00:30:17.726Z,13.87
2022-08-21T00:32:51.060Z,14.05
2022-08-21T00:35:20.570Z,13.66
2022-08-21T00:37:47.086Z,13.82
2022-08-21T00:40:17.669Z,13.83
2022-08-21T00:42:44.863Z,13.81
2022-08-21T00:45:20.529Z,13.61
2022-08-21T00:47:47.020Z,13.64
2022-08-21T00:50:21.658Z,13.71
2022-08-21T00:52:50.556Z,13.48
2022-08-21T00:55:17.672Z,13.37
2022-08-21T00:57:50.504Z,13.24
2022-08-21T01:00:22.300Z,13.28
2022-08-21T01:02:48.774Z,13.17
2022-08-21T01:05:15.722Z,13.27
2022-08-21T01:07:43.002Z,13.35
2022-08-21T01:10:20.542Z,13.07
2022-08-21T01:12:52.749Z,13.30
2022-08-21T01:15:22.278Z,13.08
2022-08-21T01:17:53.096Z,13.07
2022-08-21T01:20:19.934Z,12.91
2022-08-21T01:22:46.711Z,12.87
2022-08-21T01:25:22.598Z,12.84
2022-08-21T01:27:49.420Z,12.79
2022-08-21T01:30:22.910Z,12.40
2022-08-21T01:32:50.386Z,12.57
2022-08-21T01:35:18.445Z,12.49
2022-08-21T01:37:45.146Z,12.41
2022-08-21T01:40:12.772Z,12.29
2022-08-21T01:42:39.867Z,11.94
2022-08-21T01:45:08.272Z,12.02
2022-08-21T01:47:35.873Z,12.15
2022-08-21T01:50:05.280Z,12.08
2022-08-21T01:52:31.983Z,11.94
2022-08-21T01:54:58.532Z,11.69
2022-08-21T01:57:26.083Z,11.97
2022-08-21T01:59:53.731Z,11.82
2022-08-21T02:02:20.354Z,11.93
2022-08-21T02:04:46.824Z,11.94
2022-08-21T02:07:13.323Z,11.95
2022-08-21T02:09:40.263Z,11.81
2022-08-21T02:12:07.018Z,11.59
2022-08-21T02:14:34.494Z,11.70
2022-08-21T02:17:08.723Z,11.60
2022-08-21T02:19:40.109Z,11.60
2022-08-21T02:22:10.647Z,11.29
2022-08-21T02:24:50.172Z,11.34
2022-08-21T02:27:26.116Z,11.39
2022-08-21T02:29:54.034Z,11.25
2022-08-21T02:32:22.305Z,11.28
2022-08-21T02:34:49.460Z,11.32
2022-08-21T02:37:15.889Z,11.29
2022-08-21T02:39:42.327Z,11.15
2022-08-21T02:42:08.840Z,11.15
2022-08-21T02:44:35.343Z,10.94
2022-08-21T02:47:01.774Z,10.98
2022-08-21T02:49:28.174Z,10.92
2022-08-21T02:51:54.715Z,10.94
2022-08-21T02:54:22.202Z,11.13
2022-08-21T02:56:48.654Z,10.99
2022-08-21T02:59:15.068Z,11.08
2022-08-21T03:01:41.676Z,10.95
2022-08-21T03:04:08.103Z,10.89
2022-08-21T03:06:34.774Z,10.83
2022-08-21T03:09:01.368Z,10.70
2022-08-21T03:11:27.877Z,10.84
2022-08-21T03:13:54.323Z,10.77
2022-08-21T03:16:21.606Z,10.95
2022-08-21T03:18:48.320Z,10.90
2022-08-21T03:21:14.848Z,10.93
2022-08-21T03:23:42.969Z,10.98
2022-08-21T03:26:11.702Z,10.77
2022-08-21T03:28:38.339Z,10.78
2022-08-21T03:31:06.365Z,10.58
2022-08-21T03:33:33.945Z,10.47
2022-08-21T03:36:07.865Z,10.57
2022-08-21T03:38:35.909Z,10.60
2022-08-21T03:41:03.851Z,10.47
2022-08-21T03:43:32.134Z,10.40
2022-08-21T03:45:59.862Z,10.39
2022-08-21T03:48:26.292Z,10.46
2022-08-21T03:50:53.839Z,10.56
2022-08-21T03:53:20.298Z,10.40
2022-08-21T03:55:51.779Z,10.61
2022-08-21T03:58:22.114Z,10.58
2022-08-21T04:00:51.268Z,10.37
2022-08-21T04:03:17.988Z,10.42
2022-08-21T04:05:46.489Z,10.55
2022-08-21T04:08:14.563Z,10.41
2022-08-21T04:10:42.191Z,10.41
2022-08-21T04:13:09.147Z,10.36
2022-08-21T04:15:36.173Z,10.36
2022-08-21T04:18:03.624Z,10.27
2022-08-21T04:20:30.129Z,10.05
2022-08-21T04:22:57.381Z,10.04
2022-08-21T04:25:26.311Z,9.95
2022-08-21T04:27:53.270Z,9.96
2022-08-21T04:30:20.411Z,10.15
2022-08-21T04:32:49.943Z,10.13
2022-08-21T04:35:18.870Z,10.01
2022-08-21T04:37:45.400Z,9.95
2022-08-21T04:40:13.590Z,10.14
2022-08-21T04:42:54.111Z,9.94
2022-08-21T04:45:26.177Z,10.16
2022-08-21T04:47:54.569Z,10.00
2022-08-21T04:50:32.558Z,10.25
2022-08-21T04:52:59.676Z,10.24
2022-08-21T04:55:29.503Z,10.17
2022-08-21T04:57:57.721Z,10.24
2022-08-21T05:00:25.645Z,10.47
2022-08-21T05:02:57.346Z,10.39
2022-08-21T05:05:25.020Z,10.67
2022-08-21T05:07:53.134Z,10.55
2022-08-21T05:10:20.554Z,10.84
2022-08-21T05:12:47.296Z,10.86
2022-08-21T05:15:14.054Z,11.02
2022-08-21T05:17:52.553Z,11.02
2022-08-21T05:20:27.463Z,10.97
2022-08-21T05:22:53.975Z,11.13
2022-08-21T05:25:22.345Z,11.23
2022-08-21T05:27:51.977Z,11.21
2022-08-21T05:30:19.959Z,11.29
2022-08-21T05:32:47.013Z,11.41
2022-08-21T05:35:13.446Z,11.65
2022-08-21T05:37:40.291Z,11.72
2022-08-21T05:40:22.412Z,11.62
2022-08-21T05:42:54.260Z,11.86
2022-08-21T05:45:41.620Z,11.72
2022-08-21T05:48:18.086Z,11.42
2022-08-21T05:50:45.979Z,11.89
2022-08-21T05:53:13.552Z,11.94
2022-08-21T05:55:45.284Z,12.17
2022-08-21T05:58:18.476Z,12.29
2022-08-21T06:00:48.230Z,12.33
2022-08-21T06:03:24.746Z,12.33
2022-08-21T06:05:51.215Z,12.35
2022-08-21T06:08:18.411Z,12.44
2022-08-21T06:10:45.993Z,12.66
2022-08-21T06:13:13.134Z,12.64
2022-08-21T06:15:39.676Z,12.67
2022-08-21T06:18:06.763Z,12.77
2022-08-21T06:20:33.833Z,12.90
2022-08-21T06:23:00.461Z,12.78
2022-08-21T06:25:27.260Z,12.96
2022-08-21T06:27:53.792Z,13.18
2022-08-21T06:30:20.803Z,13.11
2022-08-21T06:32:47.235Z,13.47
2022-08-21T06:35:13.705Z,13.54
2022-08-21T06:37:40.123Z,13.40
2022-08-21T06:40:12.556Z,13.64
2022-08-21T06:42:39.750Z,13.55
2022-08-21T06:45:08.192Z,13.79
2022-08-21T06:47:34.619Z,13.89
2022-08-21T06:50:01.198Z,13.89
2022-08-21T06:52:27.607Z,13.82
2022-08-21T06:54:54.011Z,14.07
2022-08-21T06:57:20.426Z,13.98
2022-08-21T06:59:46.850Z,13.97
2022-08-21T07:02:13.264Z,14.25
2022-08-21T07:04:39.686Z,14.34
2022-08-21T07:07:06.158Z,14.38
2022-08-21T07:09:32.634Z,13.84
2022-08-21T07:11:59.183Z,14.23
2022-08-21T07:14:25.716Z,14.54
2022-08-21T07:16:52.365Z,14.55
2022-08-21T07:19:19.561Z,14.64
2022-08-21T07:21:46.338Z,14.61
2022-08-21T07:24:13.233Z,14.61
2022-08-21T07:26:39.883Z,14.71
2022-08-21T07:29:06.309Z,14.67
2022-08-21T07:31:33.007Z,14.91
2022-08-21T07:33:59.785Z,14.96
2022-08-21T07:36:26.761Z,15.05
2022-08-21T07:38:53.312Z,14.98
2022-08-21T07:41:23.715Z,15.21
2022-08-21T07:43:52.676Z,15.23
2022-08-21T07:46:20.436Z,15.44
2022-08-21T07:48:47.113Z,15.29
2022-08-21T07:51:16.319Z,15.61
2022-08-21T07:53:43.406Z,15.64
2022-08-21T07:56:11.904Z,15.66
2022-08-21T07:58:38.866Z,15.61
2022-08-21T08:01:06.904Z,15.63
2022-08-21T08:03:34.023Z,15.73
2022-08-21T08:06:00.660Z,15.69
2022-08-21T08:08:27.311Z,15.74
2022-08-21T08:10:57.342Z,15.87
2022-08-21T08:13:24.113Z,16.16
2022-08-21T08:15:50.718Z,16.21
2022-08-21T08:18:17.202Z,16.38
2022-08-21T08:20:43.674Z,16.31
2022-08-21T08:23:14.843Z,16.15
2022-08-21T08:25:41.954Z,16.36
2022-08-21T08:28:16.983Z,16.52
2022-08-21T08:30:45.523Z,16.24
2022-08-21T08:33:11.953Z,16.35
2022-08-21T08:35:39.159Z,16.43
2022-08-21T08:38:06.003Z,16.43
2022-08-21T08:40:48.616Z,16.16
2022-08-21T08:43:15.554Z,16.58
2022-08-21T08:45:48.406Z,16.73
2022-08-21T08:48:31.542Z,16.79
2022-08-21T08:51:02.621Z,16.70
2022-08-21T08:53:33.027Z,16.65
2022-08-21T08:56:03.369Z,16.47
2022-08-21T08:58:38.231Z,16.75
2022-08-21T09:01:16.186Z,16.77
2022-08-21T09:03:43.237Z,16.87
2022-08-21T09:06:17.124Z,17.33
2022-08-21T09:09:01.797Z,17.36
2022-08-21T09:11:40.641Z,17.53
2022-08-21T09:14:21.827Z,17.40
2022-08-21T09:16:54.234Z,17.09
2022-08-21T09:19:48.498Z,17.43
2022-08-21T09:22:30.296Z,17.59
2022-08-21T09:25:14.530Z,17.85
2022-08-21T09:27:41.006Z,17.82
2022-08-21T09:30:08.931Z,17.95
2022-08-21T09:32:38.288Z,17.83
2022-08-21T09:35:04.740Z,18.11
2022-08-21T09:37:35.268Z,18.44
2022-08-21T09:40:14.939Z,18.38
2022-08-21T09:42:41.383Z,18.53
2022-08-21T09:45:19.185Z,18.75
2022-08-21T09:47:46.578Z,18.83
2022-08-21T09:50:25.423Z,18.80
2022-08-21T09:52:58.965Z,18.65
2022-08-21T09:55:57.406Z,18.85
2022-08-21T09:58:35.126Z,18.87
2022-08-21T10:01:04.294Z,19.16
2022-08-21T10:03:30.906Z,19.42
2022-08-21T10:06:09.547Z,19.40
2022-08-21T10:08:41.323Z,19.55
2022-08-21T10:11:14.670Z,19.64
2022-08-21T10:14:18.900Z,19.94
2022-08-21T10:16:57.156Z,19.69
2022-08-21T10:19:52.350Z,19.82
2022-08-21T10:22:42.092Z,20.23
2022-08-21T10:25:17.483Z,20.55
2022-08-21T10:27:56.021Z,20.32
2022-08-21T10:30:37.378Z,20.43
2022-08-21T10:33:17.051Z,20.45
2022-08-21T10:36:18.842Z,20.70
2022-08-21T10:42:11.242Z,20.84
2022-08-21T10:44:59.517Z,20.91
2022-08-21T10:47:31.274Z,20.62
2022-08-21T10:50:35.343Z,20.52
2022-08-21T10:53:26.520Z,20.98
2022-08-21T10:56:03.070Z,20.89
2022-08-21T10:58:51.926Z,21.15
2022-08-21T11:01:28.633Z,21.33
2022-08-21T11:04:23.506Z,21.32
2022-08-21T11:07:17.264Z,21.56
2022-08-21T11:09:48.724Z,21.54
2022-08-21T11:12:36.740Z,20.95
2022-08-21T11:15:29.159Z,21.35
2022-08-21T11:18:06.129Z,21.56
2022-08-21T11:20:44.352Z,21.64
2022-08-21T11:23:24.485Z,21.76
2022-08-21T11:25:56.119Z,21.36
2022-08-21T11:28:33.101Z,21.39
2022-08-21T11:31:32.470Z,21.54
2022-08-21T11:34:13.974Z,21.65
2022-08-21T11:37:09.195Z,21.73
2022-08-21T11:40:27.440Z,21.63
2022-08-21T11:43:02.880Z,21.78
2022-08-21T11:45:44.618Z,21.81
2022-08-21T11:48:46.592Z,22.17
2022-08-21T11:51:21.620Z,22.05
2022-08-21T11:54:00.188Z,21.96
2022-08-21T11:56:39.716Z,21.98
2022-08-21T11:59:12.074Z,21.48
2022-08-21T12:01:45.693Z,21.24
2022-08-21T12:04:29.900Z,21.47
2022-08-21T12:06:57.297Z,21.52
2022-08-21T12:09:26.696Z,21.45
2022-08-21T12:12:30.354Z,21.54
2022-08-21T12:15:20.841Z,21.61
2022-08-21T12:18:02.730Z,21.76
2022-08-21T12:20:57.882Z,21.93
2022-08-21T12:23:45.666Z,22.00
2022-08-21T12:26:21.412Z,21.74
2022-08-21T12:28:48.227Z,21.84
2022-08-21T12:31:20.127Z,21.73
2022-08-21T12:33:54.919Z,22.07
2022-08-21T12:36:26.746Z,22.44
2022-08-21T12:39:05.814Z,22.40
2022-08-21T12:41:42.903Z,22.01
2022-08-21T12:44:13.663Z,22.37
2022-08-21T12:46:46.474Z,22.43
2022-08-21T12:49:36.570Z,22.34
2022-08-21T12:52:12.498Z,22.29
2022-08-21T12:54:42.522Z,22.79
2022-08-21T12:57:18.712Z,22.94
2022-08-21T12:59:45.311Z,22.97
2022-08-21T13:02:19.759Z,22.77
2022-08-21T13:04:48.213Z,22.98
2022-08-21T13:07:21.549Z,23.22
2022-08-21T13:09:51.786Z,22.74
2022-08-21T13:12:20.716Z,22.97
2022-08-21T13:14:50.831Z,23.33
2022-08-21T13:17:25.777Z,23.12
2022-08-21T13:19:59.497Z,23.19
2022-08-21T13:22:33.801Z,23.00
2022-08-21T13:25:06.647Z,23.01
2022-08-21T13:27:35.056Z,23.44
2022-08-21T13:30:08.309Z,23.29
2022-08-21T13:32:38.823Z,23.27
2022-08-21T13:35:27.058Z,23.54
2022-08-21T13:37:55.542Z,23.29
2022-08-21T13:40:32.444Z,23.54
2022-08-21T13:43:01.200Z,23.54
2022-08-21T13:45:33.864Z,23.36
2022-08-21T13:48:06.696Z,23.30
2022-08-21T13:50:36.279Z,23.57
2022-08-21T13:53:06.839Z,23.58
2022-08-21T13:55:40.623Z,23.49
2022-08-21T13:58:08.136Z,23.69
2022-08-21T14:00:44.213Z,23.62
2022-08-21T14:03:12.107Z,23.39
2022-08-21T14:05:45.651Z,23.68
2022-08-21T14:08:21.286Z,23.80
2022-08-21T14:10:57.468Z,23.89
2022-08-21T14:13:38.657Z,23.71
2022-08-21T14:16:20.355Z,23.87
2022-08-21T14:18:51.850Z,23.59
2022-08-21T14:21:51.087Z,23.71
2022-08-21T14:24:23.857Z,24.16
2022-08-21T14:26:54.447Z,23.80
2022-08-21T14:29:25.040Z,24.36
2022-08-21T14:32:00.742Z,24.51
2022-08-21T14:34:32.867Z,24.06
2022-08-21T14:37:01.970Z,24.10
2022-08-21T14:39:28.392Z,24.09
2022-08-21T14:41:55.246Z,23.87
2022-08-21T14:44:21.776Z,24.04
2022-08-21T14:46:55.864Z,23.77
2022-08-21T14:49:24.186Z,24.22
2022-08-21T14:51:56.326Z,23.67
2022-08-21T14:54:30.566Z,23.48
2022-08-21T14:57:01.565Z,23.81
2022-08-21T14:59:28.428Z,23.75
2022-08-21T15:01:54.954Z,24.28
2022-08-21T15:04:21.374Z,24.00
2022-08-21T15:06:47.891Z,24.02
2022-08-21T15:09:14.477Z,24.12
2022-08-21T15:11:41.823Z,24.03
2022-08-21T15:14:13.190Z,24.04
2022-08-21T15:16:39.692Z,24.08
2022-08-21T15:19:06.122Z,24.05
2022-08-21T15:21:32.600Z,24.00
2022-08-21T15:23:59.030Z,23.99
2022-08-21T15:26:25.739Z,23.89
2022-08-21T15:28:52.515Z,24.43
2022-08-21T15:31:18.996Z,24.15
2022-08-21T15:33:45.540Z,24.12
2022-08-21T15:36:12.031Z,24.05
2022-08-21T15:38:38.541Z,24.08
2022-08-21T15:41:06.055Z,24.37
2022-08-21T15:43:44.452Z,24.33
2022-08-21T15:46:14.234Z,24.29
2022-08-21T15:48:41.112Z,24.23
2022-08-21T15:51:10.839Z,24.39
2022-08-21T15:53:39.947Z,24.23
2022-08-21T15:56:22.330Z,24.43
2022-08-21T15:58:50.250Z,24.56
2022-08-21T16:01:17.122Z,24.56
2022-08-21T16:03:48.708Z,24.41
2022-08-21T16:06:15.235Z,24.18
2022-08-21T16:08:41.744Z,24.28
2022-08-21T16:11:08.226Z,23.97
2022-08-21T16:13:43.684Z,23.95
2022-08-21T16:16:19.694Z,24.20
2022-08-21T16:18:47.154Z,24.42
2022-08-21T16:21:14.244Z,24.56
2022-08-21T16:23:42.323Z,24.57
2022-08-21T16:26:11.658Z,24.43
2022-08-21T16:28:46.385Z,24.29
2022-08-21T16:31:15.470Z,24.59
2022-08-21T16:33:53.510Z,24.63
2022-08-21T16:36:26.380Z,24.53
2022-08-21T16:38:54.852Z,24.64
2022-08-21T16:41:23.266Z,24.58
2022-08-21T16:43:51.762Z,24.65
2022-08-21T16:46:20.546Z,24.63
2022-08-21T16:48:47.396Z,24.76
2022-08-21T16:51:15.080Z,24.73
2022-08-21T16:53:42.820Z,24.42
2022-08-21T16:56:10.834Z,24.61
2022-08-21T16:58:42.086Z,24.46
2022-08-21T17:01:11.594Z,24.32
2022-08-21T17:03:42.203Z,24.15
2022-08-21T17:06:09.394Z,24.07
2022-08-21T17:11:03.397Z,24.16
2022-08-21T17:13:30.688Z,24.22
2022-08-21T17:15:57.676Z,24.18
2022-08-21T17:18:25.131Z,23.96
2022-08-21T17:20:51.914Z,23.61
2022-08-21T17:23:19.700Z,23.59
2022-08-21T17:25:49.644Z,23.48
2022-08-21T17:28:23.966Z,23.09
2022-08-21T17:30:52.118Z,22.74
2022-08-21T17:33:19.640Z,22.65
2022-08-21T17:35:46.599Z,22.24
2022-08-21T17:38:14.773Z,21.97
2022-08-21T17:40:41.659Z,21.69
2022-08-21T17:43:12.920Z,21.43
2022-08-21T17:45:40.628Z,21.06
2022-08-21T17:48:07.371Z,20.60
2022-08-21T17:50:34.063Z,20.40
2022-08-21T17:53:00.744Z,20.35
2022-08-21T17:55:29.481Z,20.10
2022-08-21T17:57:57.161Z,19.85
2022-08-21T18:00:26.060Z,19.89
2022-08-21T18:03:01.798Z,19.74
2022-08-21T18:05:29.170Z,19.61
2022-08-21T18:07:55.855Z,19.42
2022-08-21T18:10:23.031Z,19.25
2022-08-21T18:12:49.954Z,19.13
2022-08-21T18:15:18.058Z,19.17
2022-08-21T18:17:48.097Z,18.72
2022-08-21T18:20:17.947Z,18.21
2022-08-21T18:22:44.973Z,18.07
2022-08-21T18:25:11.502Z,17.83
2022-08-21T18:27:38.949Z,17.70
2022-08-21T18:30:06.272Z,17.39
2022-08-21T18:32:32.811Z,17.36
2022-08-21T18:35:01.824Z,17.34
2022-08-21T18:37:29.188Z,17.00
2022-08-21T18:39:56.254Z,16.98
2022-08-21T18:42:28.444Z,16.98
2022-08-21T18:44:59.030Z,16.98
2022-08-21T18:47:32.615Z,16.68
2022-08-21T18:49:59.591Z,16.54
2022-08-21T18:52:28.465Z,16.47
2022-08-21T18:54:55.299Z,16.41
2022-08-21T18:57:23.293Z,16.46
2022-08-21T18:59:49.908Z,16.16
2022-08-21T19:02:16.387Z,16.18
2022-08-21T19:04:44.922Z,16.02
2022-08-21T19:07:13.609Z,15.98
2022-08-21T19:09:41.182Z,15.85
2022-08-21T19:12:14.036Z,16.16
2022-08-21T19:14:41.135Z,16.09
2022-08-21T19:17:08.663Z,15.81
2022-08-21T19:19:36.644Z,15.68
2022-08-21T19:22:06.158Z,15.64
2022-08-21T19:24:37.831Z,15.32
2022-08-21T19:27:04.502Z,15.24
2022-08-21T19:29:35.180Z,15.14
2022-08-21T19:32:04.542Z,15.30
2022-08-21T19:34:31.380Z,15.16
2022-08-21T19:36:59.216Z,15.23
2022-08-21T19:39:25.761Z,15.21
2022-08-21T19:41:57.107Z,15.02
2022-08-21T19:44:28.246Z,15.18
2022-08-21T19:47:00.085Z,15.17
2022-08-21T19:49:34.075Z,15.02
2022-08-21T19:52:01.693Z,14.86
2022-08-21T19:54:34.354Z,14.97
2022-08-21T19:57:06.701Z,14.81
2022-08-21T19:59:35.353Z,14.75
2022-08-21T20:02:02.131Z,14.59
2022-08-21T20:04:28.664Z,14.36
2022-08-21T20:06:55.338Z,14.16
2022-08-21T20:09:21.901Z,14.07
2022-08-21T20:11:51.807Z,14.25
2022-08-21T20:14:22.001Z,14.13
2022-08-21T20:16:52.572Z,14.03
2022-08-21T20:19:38.255Z,14.12
2022-08-21T20:22:05.588Z,13.76
2022-08-21T20:24:33.148Z,13.77
2022-08-21T20:27:02.313Z,13.80
2022-08-21T20:32:19.142Z,13.80
2022-08-21T20:34:52.116Z,13.68
2022-08-21T20:37:35.706Z,13.77
2022-08-21T20:40:09.899Z,13.66
2022-08-21T20:42:38.601Z,13.06
2022-08-21T20:45:08.404Z,13.39
2022-08-21T20:47:36.264Z,13.28
2022-08-21T20:50:13.034Z,13.37
2022-08-21T20:52:41.559Z,13.40
2022-08-21T20:55:14.353Z,13.57
2022-08-21T20:58:03.916Z,13.54
2022-08-21T21:00:34.994Z,13.54
2022-08-21T21:03:30.487Z,13.48
2022-08-21T21:06:04.646Z,13.41
2022-08-21T21:08:41.430Z,13.09
2022-08-21T21:11:19.619Z,13.32
2022-08-21T21:14:00.640Z,13.28
2022-08-21T21:16:36.524Z,13.21
2022-08-21T21:19:37.091Z,13.10
2022-08-21T21:22:13.977Z,12.81
2022-08-21T21:25:02.920Z,12.99
2022-08-21T21:27:37.715Z,13.00
2022-08-21T21:30:16.516Z,13.03
2022-08-21T21:32:47.843Z,13.03
2022-08-21T21:35:16.842Z,12.96
2022-08-21T21:38:18.371Z,12.90
2022-08-21T21:40:48.654Z,12.85
2022-08-21T21:43:52.715Z,12.84
2022-08-21T21:46:52.942Z,12.47
2022-08-21T21:49:34.213Z,12.44
2022-08-21T21:52:29.303Z,12.58
2022-08-21T21:55:03.149Z,12.54
2022-08-21T21:57:59.988Z,12.29
2022-08-21T22:00:32.847Z,12.31
2022-08-21T22:03:02.249Z,12.49
2022-08-21T22:05:57.479Z,12.48
2022-08-21T22:08:39.294Z,12.41
2022-08-21T22:11:29.444Z,12.37
2022-08-21T22:14:10.146Z,12.49
2022-08-21T22:16:37.918Z,12.52
2022-08-21T22:19:23.087Z,12.60
2022-08-21T22:22:09.147Z,12.64
2022-08-21T22:24:40.254Z,12.66
2022-08-21T22:27:12.095Z,12.58
2022-08-21T22:29:48.610Z,12.75
2022-08-21T22:32:42.794Z,12.68
2022-08-21T22:35:22.486Z,12.67
2022-08-21T22:37:53.836Z,12.71
2022-08-21T22:40:28.909Z,12.68
2022-08-21T22:43:07.462Z,12.49
2022-08-21T22:45:57.370Z,12.62
2022-08-21T22:48:28.415Z,12.33
2022-08-21T22:51:05.796Z,12.51
2022-08-21T22:53:39.585Z,12.45
2022-08-21T22:56:07.706Z,12.23
2022-08-21T22:58:40.860Z,12.44
2022-08-21T23:01:33.285Z,12.40
2022-08-21T23:04:19.223Z,12.60
2022-08-21T23:06:52.022Z,12.33
2022-08-21T23:09:21.077Z,12.45
2022-08-21T23:11:50.954Z,12.40
2022-08-21T23:14:18.393Z,12.32
2022-08-21T23:16:58.102Z,12.17
2022-08-21T23:19:49.295Z,12.02
2022-08-21T23:22:34.055Z,11.92
2022-08-21T23:25:24.902Z,11.65
2022-08-21T23:28:38.707Z,11.62
2022-08-21T23:31:32.756Z,11.82
2022-08-21T23:34:25.591Z,11.78
2022-08-21T23:37:49.754Z,11.78
2022-08-21T23:40:41.048Z,11.71
2022-08-21T23:43:43.556Z,11.81
2022-08-21T23:46:32.413Z,11.75
2022-08-21T23:49:07.672Z,11.28
2022-08-21T23:51:54.517Z,11.59
2022-08-21T23:54:27.272Z,11.32
2022-08-21T23:57:31.490Z,11.22
